createdAt,value
2023-03-08T00:01:05.066Z,100052.59
2023-03-08T00:06:09.327Z,100048.06
2023-03-08T00:11:13.078Z,100057.47
2023-03-08T00:16:15.402Z,100040.88
2023-03-08T00:21:20.297Z,100031.44
2023-03-08T00:26:22.662Z,100015.63
2023-03-08T00:31:24.829Z,100016.09
2023-03-08T00:36:27.011Z,100028.34
2023-03-08T00:41:29.226Z,100018.63
2023-03-08T00:46:32.235Z,100032.34
2023-03-08T00:51:34.423Z,100024.03
2023-03-08T00:56:36.644Z,100025.44
2023-03-08T01:01:38.818Z,100023.88
2023-03-08T01:06:41.369Z,100019.44
2023-03-08T01:11:44.568Z,100010.56
2023-03-08T01:16:46.766Z,100011.81
2023-03-08T01:21:48.928Z,100018.81
2023-03-08T01:26:51.157Z,100006.06
2023-03-08T01:31:53.679Z,99991.19
2023-03-08T01:36:55.844Z,99992.72
2023-03-08T01:41:58.040Z,100002.00
2023-03-08T01:47:01.047Z,100000.09
2023-03-08T01:52:07.288Z,100014.47
2023-03-08T01:57:17.240Z,100010.28
2023-03-08T02:02:24.989Z,100006.19
2023-03-08T02:07:29.000Z,99987.28
2023-03-08T02:12:32.003Z,99987.38
2023-03-08T02:23:14.936Z,100009.53
2023-03-08T02:28:18.180Z,100007.50
2023-03-08T02:33:20.434Z,100019.00
2023-03-08T02:38:22.795Z,100006.00
2023-03-08T02:43:24.996Z,100010.31
2023-03-08T02:48:27.150Z,100021.47
2023-03-08T02:53:29.509Z,100035.53
2023-03-08T02:58:31.586Z,100035.25
2023-03-08T03:03:33.807Z,100033.53
2023-03-08T03:08:35.899Z,100047.13
2023-03-08T03:13:38.127Z,100030.00
2023-03-08T03:18:42.218Z,100034.66
2023-03-08T03:23:44.508Z,100050.00
2023-03-08T03:28:46.814Z,100057.25
2023-03-08T03:33:50.132Z,100067.66
2023-03-08T03:38:54.754Z,100036.13
2023-03-08T03:43:58.247Z,100068.16
2023-03-08T03:49:00.374Z,100062.06
2023-03-08T03:54:02.769Z,100051.38
2023-03-08T03:59:04.954Z,100059.97
2023-03-08T04:04:07.226Z,100081.28
2023-03-08T04:09:15.815Z,100098.16
2023-03-08T04:14:18.033Z,100104.63
2023-03-08T04:19:20.141Z,100091.97
2023-03-08T04:24:22.309Z,100073.16
2023-03-08T04:29:24.548Z,100089.28
2023-03-08T04:34:27.582Z,100068.41
2023-03-08T04:39:29.969Z,100088.72
2023-03-08T04:44:32.119Z,100105.72
2023-03-08T04:49:34.345Z,100093.81
2023-03-08T04:54:36.441Z,100094.38
2023-03-08T04:59:38.662Z,100077.03
2023-03-08T05:04:40.882Z,100100.16
2023-03-08T05:09:43.132Z,100081.81
2023-03-08T05:14:45.421Z,100097.44
2023-03-08T05:19:48.057Z,100100.19
2023-03-08T05:24:51.494Z,100092.63
2023-03-08T05:29:53.851Z,100096.41
2023-03-08T05:34:55.933Z,100113.41
2023-03-08T05:39:58.091Z,100122.16
2023-03-08T05:45:00.373Z,100147.22
2023-03-08T05:50:05.218Z,100130.34
2023-03-08T05:55:07.703Z,100138.84
2023-03-08T06:00:10.483Z,100149.94
2023-03-08T06:05:12.580Z,100151.81
2023-03-08T06:10:14.856Z,100154.09
2023-03-08T06:15:17.421Z,100172.25
2023-03-08T06:20:19.660Z,100188.34
2023-03-08T06:25:21.781Z,100164.53
2023-03-08T06:30:24.069Z,100172.38
2023-03-08T06:35:26.371Z,100192.78
2023-03-08T06:40:28.516Z,100185.47
2023-03-08T06:45:30.707Z,100185.75
2023-03-08T06:50:33.696Z,100193.81
2023-03-08T06:55:37.220Z,100206.47
2023-03-08T07:00:39.783Z,100203.66
2023-03-08T07:05:43.577Z,100204.00
2023-03-08T07:10:45.840Z,100202.81
2023-03-08T07:15:48.194Z,100201.13
2023-03-08T07:20:57.012Z,100213.16
2023-03-08T07:25:59.220Z,100199.06
2023-03-08T07:31:02.629Z,100208.22
2023-03-08T07:36:05.060Z,100207.56
2023-03-08T07:41:07.452Z,100213.41
2023-03-08T07:46:09.878Z,100209.00
2023-03-08T07:51:12.674Z,100231.31
2023-03-08T07:56:15.653Z,100236.06
2023-03-08T08:01:17.863Z,100237.69
2023-03-08T08:06:22.140Z,100247.53
2023-03-08T08:11:24.332Z,100246.09
2023-03-08T08:16:27.762Z,100229.75
2023-03-08T08:21:29.984Z,100240.50
2023-03-08T08:26:32.212Z,100241.47
2023-03-08T08:31:36.297Z,100220.84
2023-03-08T08:36:38.693Z,100239.19
2023-03-08T08:41:40.969Z,100236.97
2023-03-08T08:46:43.134Z,100252.44
2023-03-08T08:51:46.120Z,100246.94
2023-03-08T08:56:48.645Z,100237.94
2023-03-08T09:01:50.934Z,100237.97
2023-03-08T09:06:53.966Z,100232.84
2023-03-08T09:11:56.242Z,100239.75
2023-03-08T09:16:58.670Z,100235.31
2023-03-08T09:22:01.936Z,100233.56
2023-03-08T09:27:07.753Z,100255.59
2023-03-08T09:32:10.945Z,100229.38
2023-03-08T09:37:15.123Z,100236.84
2023-03-08T09:42:23.816Z,100236.81
2023-03-08T09:47:30.408Z,100238.16
2023-03-08T09:52:39.745Z,100240.50
2023-03-08T09:57:50.801Z,100222.88
2023-03-08T10:03:23.804Z,100217.41
2023-03-08T10:08:52.856Z,100211.13
2023-03-08T10:13:58.858Z,100202.44
2023-03-08T10:19:19.409Z,100207.25
2023-03-08T10:24:44.252Z,100188.03
2023-03-08T10:29:58.606Z,100195.94
2023-03-08T10:35:07.035Z,100189.84
2023-03-08T10:40:21.552Z,100199.19
2023-03-08T10:45:25.969Z,100182.00
2023-03-08T10:50:34.568Z,100181.81
2023-03-08T10:55:46.053Z,100167.41
2023-03-08T11:00:54.784Z,100175.78
2023-03-08T11:06:01.315Z,100173.56
2023-03-08T11:11:10.324Z,100150.38
2023-03-08T11:16:45.792Z,100132.50
2023-03-08T11:21:56.929Z,100140.78
2023-03-08T11:27:13.994Z,100121.88
2023-03-08T11:32:39.611Z,100114.47
2023-03-08T11:37:54.256Z,100112.28
2023-03-08T11:43:13.640Z,100094.56
2023-03-08T11:48:22.412Z,100091.78
2023-03-08T11:53:39.410Z,100095.06
2023-03-08T11:58:52.799Z,100085.59
2023-03-08T12:04:01.947Z,100096.03
2023-03-08T12:09:26.662Z,100071.09
2023-03-08T12:14:35.229Z,100086.66
2023-03-08T12:19:51.134Z,100089.94
2023-03-08T12:25:09.797Z,100083.72
2023-03-08T12:30:12.012Z,100084.44
2023-03-08T12:35:23.183Z,100066.28
2023-03-08T12:40:31.409Z,100065.75
2023-03-08T12:45:33.944Z,100058.16
2023-03-08T12:50:43.966Z,100056.50
2023-03-08T12:55:46.208Z,100060.66
2023-03-08T13:01:02.402Z,100054.16
2023-03-08T13:06:24.233Z,100059.84
2023-03-08T13:11:38.583Z,100043.16
2023-03-08T13:16:41.071Z,100047.13
2023-03-08T13:22:04.614Z,100046.28
2023-03-08T13:27:09.666Z,100034.69
2023-03-08T13:32:17.604Z,100046.88
2023-03-08T13:37:28.027Z,100029.38
2023-03-08T13:42:31.061Z,100025.66
2023-03-08T13:47:37.796Z,100026.91
2023-03-08T13:52:40.883Z,100029.06
2023-03-08T13:57:43.257Z,100032.78
2023-03-08T14:02:47.280Z,100025.19
2023-03-08T14:08:04.436Z,100018.91
2023-03-08T14:13:16.359Z,100012.56
2023-03-08T14:18:29.180Z,100026.94
2023-03-08T14:23:37.493Z,100021.97
2023-03-08T14:28:42.090Z,100033.16
2023-03-08T14:33:44.509Z,100023.94
2023-03-08T14:38:49.555Z,100019.44
2023-03-08T14:43:52.033Z,100040.59
2023-03-08T14:49:05.245Z,100040.50
2023-03-08T14:54:22.671Z,100032.25
2023-03-08T14:59:28.072Z,100038.00
2023-03-08T15:04:30.489Z,100025.91
2023-03-08T15:09:33.921Z,100030.69
2023-03-08T15:14:36.857Z,100042.78
2023-03-08T15:19:38.973Z,100045.69
2023-03-08T15:24:41.425Z,100037.09
2023-03-08T15:29:43.674Z,100058.31
2023-03-08T15:34:45.945Z,100052.97
2023-03-08T15:39:48.150Z,100051.88
2023-03-08T15:44:50.297Z,100045.13
2023-03-08T15:49:52.738Z,100066.31
2023-03-08T15:54:55.000Z,100057.59
2023-03-08T15:59:58.063Z,100058.69
2023-03-08T16:05:00.291Z,100046.03
2023-03-08T16:10:03.503Z,100052.16
2023-03-08T16:15:07.338Z,100055.19
2023-03-08T16:20:10.378Z,100051.81
2023-03-08T16:25:13.391Z,100050.63
2023-03-08T16:30:15.816Z,100079.53
2023-03-08T16:35:18.088Z,100069.59
2023-03-08T16:40:20.499Z,100091.38
2023-03-08T16:45:22.674Z,100100.97
2023-03-08T16:50:27.711Z,100092.19
2023-03-08T16:55:29.874Z,100095.31
2023-03-08T17:00:32.122Z,100099.69
2023-03-08T17:05:38.781Z,100108.63
2023-03-08T17:10:43.631Z,100111.56
2023-03-08T17:15:49.815Z,100110.94
2023-03-08T17:20:53.362Z,100133.22
2023-03-08T17:25:55.567Z,100131.63
2023-03-08T17:30:58.995Z,100137.56
2023-03-08T17:36:02.519Z,100153.34
2023-03-08T17:41:09.135Z,100162.75
2023-03-08T17:46:20.781Z,100163.88
2023-03-08T17:51:30.266Z,100166.63
2023-03-08T17:56:33.035Z,100167.59
2023-03-08T18:01:36.038Z,100177.41
2023-03-08T18:06:42.318Z,100191.91
2023-03-08T18:11:44.553Z,100173.56
2023-03-08T18:16:47.753Z,100201.16
2023-03-08T18:21:54.524Z,100199.44
2023-03-08T18:27:00.064Z,100227.84
2023-03-08T18:32:04.251Z,100219.13
2023-03-08T18:37:06.379Z,100212.91
2023-03-08T18:42:08.786Z,100226.09
2023-03-08T18:47:13.376Z,100231.34
2023-03-08T18:52:15.584Z,100222.59
2023-03-08T18:57:17.886Z,100222.03
2023-03-08T19:02:21.612Z,100231.19
2023-03-08T19:07:24.119Z,100227.66
2023-03-08T19:12:28.767Z,100231.38
2023-03-08T19:17:31.858Z,100246.91
2023-03-08T19:22:34.039Z,100245.06
2023-03-08T19:27:36.289Z,100245.09
2023-03-08T19:32:42.242Z,100241.03
2023-03-08T19:37:44.861Z,100243.56
2023-03-08T19:42:47.017Z,100263.28
2023-03-08T19:47:49.150Z,100273.25
2023-03-08T19:52:53.759Z,100280.47
2023-03-08T19:57:55.919Z,100277.34
2023-03-08T20:03:01.580Z,100261.00
2023-03-08T20:08:04.037Z,100270.28
2023-03-08T20:13:06.391Z,100282.84
2023-03-08T20:18:08.639Z,100272.66
2023-03-08T20:23:10.993Z,100280.25
2023-03-08T20:28:13.192Z,100276.06
2023-03-08T20:33:16.722Z,100281.88
2023-03-08T20:38:19.250Z,100290.41
2023-03-08T20:43:21.372Z,100291.88
2023-03-08T20:48:24.466Z,100312.13
2023-03-08T20:53:27.600Z,100311.56
2023-03-08T21:03:56.454Z,100314.22
2023-03-08T21:09:00.138Z,100321.09
2023-03-08T21:14:03.312Z,100305.53
2023-03-08T21:19:07.043Z,100326.69
2023-03-08T21:24:14.078Z,100300.56
2023-03-08T21:29:20.098Z,100327.31
2023-03-08T21:34:22.440Z,100335.78
2023-03-08T21:39:27.719Z,100317.56
2023-03-08T21:44:31.988Z,100330.63
2023-03-08T21:49:38.069Z,100322.97
2023-03-08T21:54:42.754Z,100333.31
2023-03-08T21:59:45.862Z,100322.53
2023-03-08T22:04:48.191Z,100327.72
2023-03-08T22:09:57.854Z,100326.06
2023-03-08T22:15:00.163Z,100321.72
2023-03-08T22:20:05.515Z,100334.75
2023-03-08T22:25:09.772Z,100333.72
2023-03-08T22:30:13.035Z,100317.53
2023-03-08T22:35:25.787Z,100312.41
2023-03-08T22:40:28.252Z,100317.53
2023-03-08T22:45:31.379Z,100288.75
2023-03-08T22:50:33.638Z,100311.75
2023-03-08T22:55:35.886Z,100317.75
2023-03-08T23:00:38.139Z,100303.44
2023-03-08T23:05:40.281Z,100312.13
2023-03-08T23:10:42.529Z,100318.19
2023-03-08T23:15:44.646Z,100302.69
2023-03-08T23:20:47.519Z,100325.66
2023-03-08T23:25:50.504Z,100313.88
2023-03-08T23:30:53.518Z,100306.38
2023-03-08T23:35:55.829Z,100310.22
2023-03-08T23:40:58.525Z,100312.38
2023-03-08T23:46:02.738Z,100303.19
2023-03-08T23:51:07.280Z,100323.84
2023-03-08T23:56:30.461Z,100317.06
